createdAt,value
2024-02-21T00:00:49.147Z,9.00
2024-02-21T00:03:15.815Z,9.00
2024-02-21T00:05:42.320Z,9.50
2024-02-21T00:08:09.064Z,10.00
2024-02-21T00:13:20.079Z,9.40
2024-02-21T00:15:46.521Z,10.00
2024-02-21T00:18:13.502Z,12.00
2024-02-21T00:20:40.054Z,13.50
2024-02-21T00:23:06.503Z,18.00
2024-02-21T00:25:33.133Z,14.00
2024-02-21T00:27:59.551Z,13.00
2024-02-21T00:30:25.988Z,12.00
2024-02-21T00:32:52.447Z,11.50
2024-02-21T00:35:19.025Z,6.75
2024-02-21T00:37:45.515Z,10.00
2024-02-21T00:40:12.212Z,8.00
2024-02-21T00:42:38.639Z,10.60
2024-02-21T00:45:05.406Z,10.00
2024-02-21T00:47:31.923Z,16.60
2024-02-21T00:49:58.462Z,12.00
2024-02-21T00:52:24.919Z,10.00
2024-02-21T00:54:54.550Z,6.60
2024-02-21T00:57:21.739Z,6.75
2024-02-21T00:59:48.161Z,7.00
2024-02-21T01:02:14.761Z,11.40
2024-02-21T01:04:41.396Z,7.20
2024-02-21T01:07:07.896Z,7.25
2024-02-21T01:09:34.308Z,6.00
2024-02-21T01:12:00.806Z,9.80
2024-02-21T01:14:27.319Z,9.00
2024-02-21T01:16:53.932Z,13.00
2024-02-21T01:19:20.478Z,7.00
2024-02-21T01:21:46.953Z,10.00
2024-02-21T01:24:13.361Z,6.80
2024-02-21T01:26:39.811Z,7.80
2024-02-21T01:29:06.250Z,8.00
2024-02-21T01:31:32.717Z,6.00
2024-02-21T01:33:59.397Z,8.25
2024-02-21T01:36:25.851Z,9.75
2024-02-21T01:38:52.295Z,9.20
2024-02-21T01:41:18.780Z,8.00
2024-02-21T01:43:45.893Z,8.20
2024-02-21T01:46:12.535Z,8.00
2024-02-21T01:48:39.144Z,11.60
2024-02-21T01:51:05.924Z,10.40
2024-02-21T01:53:35.795Z,11.00
2024-02-21T01:56:02.773Z,11.00
2024-02-21T01:58:29.987Z,10.00
2024-02-21T02:00:57.599Z,12.00
2024-02-21T02:03:24.231Z,10.00
2024-02-21T02:05:51.145Z,10.00
2024-02-21T02:08:18.444Z,14.75
2024-02-21T02:10:45.259Z,12.60
2024-02-21T02:13:11.913Z,12.60
2024-02-21T02:15:39.004Z,11.00
2024-02-21T02:18:05.516Z,10.00
2024-02-21T02:20:32.131Z,13.00
2024-02-21T02:23:00.548Z,11.80
2024-02-21T02:25:27.512Z,11.00
2024-02-21T02:27:54.501Z,11.20
2024-02-21T02:30:20.901Z,12.00
2024-02-21T02:32:47.707Z,11.00
2024-02-21T02:35:14.402Z,13.00
2024-02-21T02:37:40.986Z,11.00
2024-02-21T02:40:08.082Z,10.75
2024-02-21T02:42:34.477Z,11.40
2024-02-21T02:45:00.876Z,11.00
2024-02-21T02:47:27.378Z,16.00
2024-02-21T02:49:53.922Z,15.00
2024-02-21T02:52:20.980Z,13.00
2024-02-21T02:54:52.769Z,10.25
2024-02-21T02:57:19.554Z,11.00
2024-02-21T02:59:52.404Z,13.00
2024-02-21T03:02:18.835Z,14.00
2024-02-21T03:04:45.466Z,10.50
2024-02-21T03:07:15.148Z,10.25
2024-02-21T03:09:41.698Z,13.00
2024-02-21T03:12:08.334Z,15.40
2024-02-21T03:14:34.832Z,13.00
2024-02-21T03:17:01.363Z,12.33
2024-02-21T03:19:28.138Z,15.50
2024-02-21T03:21:54.815Z,16.50
2024-02-21T03:24:21.880Z,13.00
2024-02-21T03:26:49.744Z,13.00
2024-02-21T03:29:16.672Z,12.75
2024-02-21T03:31:43.668Z,11.00
2024-02-21T03:34:13.480Z,12.00
2024-02-21T03:36:40.066Z,11.00
2024-02-21T03:39:06.506Z,11.50
2024-02-21T03:41:32.920Z,13.60
2024-02-21T03:43:59.443Z,10.00
2024-02-21T03:46:26.495Z,9.60
2024-02-21T03:48:52.943Z,10.00
2024-02-21T03:51:19.426Z,9.00
2024-02-21T03:53:45.992Z,9.00
2024-02-21T03:56:12.403Z,13.00
2024-02-21T03:58:38.964Z,10.40
2024-02-21T04:01:05.575Z,9.00
2024-02-21T04:03:32.085Z,9.25
2024-02-21T04:05:58.603Z,9.50
2024-02-21T04:08:25.418Z,11.00
2024-02-21T04:10:51.825Z,10.00
2024-02-21T04:13:18.316Z,9.00
2024-02-21T04:15:44.848Z,8.60
2024-02-21T04:18:11.436Z,8.00
2024-02-21T04:20:37.908Z,8.25
2024-02-21T04:23:04.477Z,8.00
2024-02-21T04:25:30.998Z,10.00
2024-02-21T04:27:57.527Z,9.25
2024-02-21T04:30:23.957Z,9.40
2024-02-21T04:32:50.426Z,13.00
2024-02-21T04:35:17.960Z,9.40
2024-02-21T04:37:44.588Z,9.80
2024-02-21T04:40:11.399Z,11.00
2024-02-21T04:42:37.978Z,10.00
2024-02-21T04:45:04.797Z,10.00
2024-02-21T04:47:31.361Z,14.80
2024-02-21T04:49:57.830Z,10.20
2024-02-21T04:52:24.313Z,7.80
2024-02-21T04:54:51.214Z,11.20
2024-02-21T04:57:18.460Z,8.50
2024-02-21T04:59:46.074Z,10.00
2024-02-21T05:02:15.110Z,8.00
2024-02-21T05:04:43.031Z,10.00
2024-02-21T05:07:09.601Z,11.00
2024-02-21T05:09:36.049Z,9.20
2024-02-21T05:12:02.496Z,9.00
2024-02-21T05:14:28.993Z,10.50
2024-02-21T05:16:55.502Z,9.40
2024-02-21T05:19:22.077Z,13.00
2024-02-21T05:21:48.521Z,12.50
2024-02-21T05:24:14.940Z,12.20
2024-02-21T05:26:41.352Z,13.00
2024-02-21T05:29:08.108Z,11.00
2024-02-21T05:32:04.153Z,12.20
2024-02-21T05:34:30.727Z,9.00
2024-02-21T05:36:58.760Z,9.00
2024-02-21T05:39:25.354Z,7.75
2024-02-21T05:41:52.001Z,7.00
2024-02-21T05:44:20.155Z,9.25
2024-02-21T05:46:47.315Z,10.00
2024-02-21T05:49:13.885Z,11.00
2024-02-21T05:51:40.423Z,9.25
2024-02-21T05:54:08.412Z,10.00
2024-02-21T05:56:35.143Z,15.00
2024-02-21T05:59:01.817Z,12.00
2024-02-21T06:01:29.236Z,12.00
2024-02-21T06:03:55.847Z,17.00
2024-02-21T06:06:26.199Z,39.50
2024-02-21T06:08:52.960Z,28.50
2024-02-21T06:11:19.420Z,34.50
2024-02-21T06:13:45.971Z,26.75
2024-02-21T06:16:12.384Z,27.25
2024-02-21T06:18:39.217Z,93.75
2024-02-21T06:21:05.783Z,42.80
2024-02-21T06:23:32.227Z,16.00
2024-02-21T06:25:58.734Z,20.00
2024-02-21T06:28:25.197Z,32.50
2024-02-21T06:30:51.633Z,25.00
2024-02-21T06:33:18.154Z,18.60
2024-02-21T06:35:47.378Z,19.00
2024-02-21T06:38:13.913Z,24.00
2024-02-21T06:40:41.488Z,22.00
2024-02-21T06:43:08.221Z,21.40
2024-02-21T06:45:34.679Z,32.20
2024-02-21T06:48:01.253Z,29.60
2024-02-21T06:50:27.828Z,33.50
2024-02-21T06:52:54.346Z,32.75
2024-02-21T06:55:21.092Z,32.00
2024-02-21T06:57:49.358Z,39.00
2024-02-21T07:00:16.120Z,38.40
2024-02-21T07:02:42.512Z,32.00
2024-02-21T07:05:09.729Z,19.00
2024-02-21T07:07:36.679Z,30.50
2024-02-21T07:10:03.344Z,25.40
2024-02-21T07:12:29.780Z,20.00
2024-02-21T07:14:56.296Z,28.40
2024-02-21T07:17:22.824Z,19.00
2024-02-21T07:19:49.516Z,15.00
2024-02-21T07:22:16.037Z,12.50
2024-02-21T07:24:42.577Z,11.40
2024-02-21T07:27:09.052Z,12.60
2024-02-21T07:29:35.581Z,18.50
2024-02-21T07:32:02.188Z,12.40
2024-02-21T07:34:28.757Z,11.00
2024-02-21T07:36:55.240Z,13.20
2024-02-21T07:39:21.642Z,8.60
2024-02-21T07:41:49.211Z,10.25
2024-02-21T07:44:18.665Z,8.20
2024-02-21T07:46:45.116Z,8.00
2024-02-21T07:49:11.657Z,10.75
2024-02-21T07:51:38.135Z,8.00
2024-02-21T07:54:05.600Z,13.40
2024-02-21T07:56:32.348Z,11.00
2024-02-21T07:58:59.031Z,17.00
2024-02-21T08:01:25.669Z,14.50
2024-02-21T08:03:52.216Z,13.75
2024-02-21T08:06:18.761Z,10.00
2024-02-21T08:08:45.272Z,12.40
2024-02-21T08:11:11.785Z,11.50
2024-02-21T08:13:38.264Z,10.50
2024-02-21T08:16:04.895Z,10.60
2024-02-21T08:18:31.430Z,8.40
2024-02-21T08:20:57.974Z,10.60
2024-02-21T08:23:24.848Z,8.00
2024-02-21T08:25:51.576Z,11.25
2024-02-21T08:28:18.047Z,9.00
2024-02-21T08:30:49.000Z,9.50
2024-02-21T08:33:16.616Z,19.00
2024-02-21T08:35:43.432Z,12.20
2024-02-21T08:38:10.080Z,13.00
2024-02-21T08:40:38.140Z,11.50
2024-02-21T08:43:04.812Z,12.00
2024-02-21T08:45:31.436Z,14.00
2024-02-21T08:47:58.149Z,13.25
2024-02-21T08:50:28.607Z,9.50
2024-02-21T08:52:56.633Z,10.80
2024-02-21T08:55:23.439Z,14.40
2024-02-21T08:57:50.114Z,11.75
2024-02-21T09:00:17.012Z,9.40
2024-02-21T09:02:46.876Z,9.00
2024-02-21T09:05:13.517Z,11.00
2024-02-21T09:07:40.308Z,12.50
2024-02-21T09:10:07.589Z,12.00
2024-02-21T09:12:34.138Z,9.20
2024-02-21T09:15:00.898Z,12.00
2024-02-21T09:17:30.794Z,11.75
2024-02-21T09:20:00.535Z,18.80
2024-02-21T09:22:27.609Z,24.60
2024-02-21T09:24:54.140Z,16.75
2024-02-21T09:27:20.557Z,13.00
2024-02-21T09:29:47.306Z,11.00
2024-02-21T09:32:15.104Z,10.25
2024-02-21T09:34:41.751Z,17.60
2024-02-21T09:37:08.375Z,11.00
2024-02-21T09:39:34.808Z,12.40
2024-02-21T09:42:05.709Z,11.60
2024-02-21T09:44:37.132Z,10.80
2024-02-21T09:47:07.213Z,11.50
2024-02-21T09:49:34.571Z,10.00
2024-02-21T09:52:05.974Z,10.00
2024-02-21T09:54:33.599Z,9.00
2024-02-21T09:57:04.319Z,9.20
2024-02-21T09:59:32.896Z,6.40
2024-02-21T10:02:03.308Z,10.00
2024-02-21T10:04:30.995Z,7.00
2024-02-21T10:06:57.739Z,8.60
2024-02-21T10:09:24.618Z,5.40
2024-02-21T10:11:52.235Z,6.00
2024-02-21T10:14:19.576Z,5.00
2024-02-21T10:16:48.261Z,6.00
2024-02-21T10:19:21.349Z,5.00
2024-02-21T10:22:00.998Z,5.00
2024-02-21T10:24:28.228Z,7.40
2024-02-21T10:27:05.018Z,7.40
2024-02-21T10:29:32.187Z,5.00
2024-02-21T10:32:05.421Z,6.50
2024-02-21T10:34:32.008Z,7.00
2024-02-21T10:37:05.009Z,8.00
2024-02-21T10:39:35.215Z,6.20
2024-02-21T10:42:05.136Z,7.00
2024-02-21T10:44:33.479Z,5.00
2024-02-21T10:47:00.198Z,6.00
2024-02-21T10:49:28.465Z,6.75
2024-02-21T10:52:16.012Z,6.60
2024-02-21T10:54:46.344Z,6.00
2024-02-21T10:57:13.733Z,7.00
2024-02-21T10:59:41.126Z,7.00
2024-02-21T11:02:08.085Z,7.60
2024-02-21T11:04:38.605Z,7.00
2024-02-21T11:07:10.552Z,5.00
2024-02-21T11:09:38.015Z,4.60
2024-02-21T11:12:05.514Z,4.00
2024-02-21T11:14:34.201Z,6.00
2024-02-21T11:17:01.289Z,7.00
2024-02-21T11:19:28.657Z,8.80
2024-02-21T11:21:56.536Z,5.60
2024-02-21T11:24:30.261Z,8.00
2024-02-21T11:27:15.362Z,7.00
2024-02-21T11:29:43.799Z,6.00
2024-02-21T11:32:16.193Z,12.25
2024-02-21T11:34:43.010Z,6.00
2024-02-21T11:37:19.094Z,5.00
2024-02-21T11:39:45.838Z,7.00
2024-02-21T11:42:13.728Z,8.00
2024-02-21T11:44:41.050Z,6.00
2024-02-21T11:47:08.580Z,7.00
2024-02-21T11:49:47.128Z,7.50
2024-02-21T11:52:16.493Z,9.00
2024-02-21T11:54:43.283Z,7.00
2024-02-21T11:57:09.929Z,7.00
2024-02-21T11:59:36.449Z,6.40
2024-02-21T12:02:04.888Z,8.20
2024-02-21T12:04:34.269Z,6.50
2024-02-21T12:07:00.925Z,7.50
2024-02-21T12:09:27.482Z,6.25
2024-02-21T12:12:01.438Z,7.75
2024-02-21T12:14:29.217Z,6.50
2024-02-21T12:16:55.964Z,7.40
2024-02-21T12:19:22.695Z,7.00
2024-02-21T12:21:51.037Z,7.00
2024-02-21T12:24:24.419Z,6.50
2024-02-21T12:26:54.710Z,8.00
2024-02-21T12:29:21.472Z,6.60
2024-02-21T12:31:48.724Z,10.00
2024-02-21T12:34:16.285Z,9.20
2024-02-21T12:36:47.902Z,6.40
2024-02-21T12:39:14.903Z,9.00
2024-02-21T12:41:45.354Z,9.00
2024-02-21T12:44:15.300Z,7.00
2024-02-21T12:46:41.772Z,7.40
2024-02-21T12:49:11.321Z,9.00
2024-02-21T12:51:39.087Z,6.50
2024-02-21T12:54:05.557Z,5.25
2024-02-21T12:56:32.291Z,8.00
2024-02-21T12:58:59.095Z,9.00
2024-02-21T13:01:25.724Z,8.75
2024-02-21T13:03:52.269Z,10.00
2024-02-21T13:06:20.157Z,9.25
2024-02-21T13:08:47.209Z,8.50
2024-02-21T13:11:13.987Z,9.00
2024-02-21T13:13:40.560Z,7.00
2024-02-21T13:16:08.066Z,8.40
2024-02-21T13:18:36.169Z,11.20
2024-02-21T13:21:02.780Z,11.00
2024-02-21T13:23:29.225Z,9.75
2024-02-21T13:25:55.683Z,8.40
2024-02-21T13:28:22.547Z,9.20
2024-02-21T13:30:49.045Z,11.00
2024-02-21T13:33:15.643Z,11.60
2024-02-21T13:35:42.201Z,10.40
2024-02-21T13:38:08.766Z,11.75
2024-02-21T13:40:35.300Z,9.00
2024-02-21T13:43:02.220Z,10.00
2024-02-21T13:45:28.899Z,8.00
2024-02-21T13:47:55.866Z,9.00
2024-02-21T13:50:22.763Z,9.00
2024-02-21T13:52:49.260Z,10.00
2024-02-21T13:55:15.842Z,7.00
2024-02-21T13:57:42.916Z,9.50
2024-02-21T14:00:12.002Z,8.60
2024-02-21T14:02:38.800Z,6.40
2024-02-21T14:05:07.220Z,9.00
2024-02-21T14:07:36.797Z,8.00
2024-02-21T14:10:04.800Z,7.50
2024-02-21T14:12:31.235Z,11.00
2024-02-21T14:14:59.437Z,8.40
2024-02-21T14:17:26.108Z,9.50
2024-02-21T14:19:55.226Z,8.00
2024-02-21T14:22:21.761Z,10.25
2024-02-21T14:24:48.211Z,9.00
2024-02-21T14:27:14.795Z,8.00
2024-02-21T14:29:41.245Z,8.00
2024-02-21T14:32:08.693Z,13.80
2024-02-21T14:34:35.256Z,10.00
2024-02-21T14:37:01.756Z,12.00
2024-02-21T14:39:28.238Z,9.00
2024-02-21T14:41:55.134Z,8.00
2024-02-21T14:44:21.636Z,8.60
2024-02-21T14:46:48.424Z,7.60
2024-02-21T14:49:16.317Z,8.00
2024-02-21T14:51:44.112Z,9.40
2024-02-21T14:54:10.778Z,9.00
2024-02-21T14:56:37.264Z,8.00
2024-02-21T14:59:09.176Z,12.00
2024-02-21T15:01:41.969Z,6.40
2024-02-21T15:04:09.236Z,8.40
2024-02-21T15:06:38.341Z,9.40
2024-02-21T15:09:05.162Z,9.00
2024-02-21T15:11:31.675Z,8.00
2024-02-21T15:13:58.214Z,7.60
2024-02-21T15:16:24.694Z,9.00
2024-02-21T15:18:51.249Z,8.00
2024-02-21T15:21:17.722Z,8.00
2024-02-21T15:23:44.922Z,8.00
2024-02-21T15:26:11.407Z,7.00
2024-02-21T15:28:37.909Z,9.50
2024-02-21T15:31:04.946Z,7.00
2024-02-21T15:33:31.858Z,9.60
2024-02-21T15:35:59.257Z,8.00
2024-02-21T15:38:26.318Z,5.00
2024-02-21T15:40:52.768Z,9.00
2024-02-21T15:43:19.233Z,7.00
2024-02-21T15:45:45.689Z,7.00
2024-02-21T15:48:14.702Z,7.00
2024-02-21T15:50:41.231Z,7.00
2024-02-21T15:53:07.811Z,6.75
2024-02-21T15:55:34.316Z,7.00
2024-02-21T15:58:00.814Z,6.33
2024-02-21T16:00:27.327Z,6.75
2024-02-21T16:02:53.760Z,6.40
2024-02-21T16:05:20.290Z,7.40
2024-02-21T16:07:46.837Z,8.00
2024-02-21T16:10:13.368Z,6.25
2024-02-21T16:12:42.209Z,7.00
2024-02-21T16:15:09.174Z,7.00
2024-02-21T16:17:35.615Z,5.60
2024-02-21T16:20:03.037Z,7.00
2024-02-21T16:22:30.283Z,5.00
2024-02-21T16:24:56.705Z,8.00
2024-02-21T16:27:23.138Z,7.00
2024-02-21T16:29:49.565Z,6.00
2024-02-21T16:32:16.086Z,6.00
2024-02-21T16:34:42.697Z,5.25
2024-02-21T16:37:09.176Z,6.60
2024-02-21T16:39:35.679Z,5.75
2024-02-21T16:42:04.784Z,6.80
2024-02-21T16:44:32.230Z,6.00
2024-02-21T16:46:59.085Z,7.50
2024-02-21T16:49:26.960Z,5.80
2024-02-21T16:51:54.041Z,5.60
2024-02-21T16:54:26.516Z,6.00
2024-02-21T16:56:53.268Z,7.00
2024-02-21T16:59:19.758Z,8.25
2024-02-21T17:01:46.374Z,3.00
2024-02-21T17:04:13.666Z,4.00
2024-02-21T17:06:40.304Z,7.00
2024-02-21T17:09:08.789Z,6.20
2024-02-21T17:11:36.470Z,4.33
2024-02-21T17:14:04.435Z,5.40
2024-02-21T17:16:31.840Z,5.40
2024-02-21T17:18:58.528Z,6.00
2024-02-21T17:21:24.975Z,6.80
2024-02-21T17:23:51.864Z,6.00
2024-02-21T17:26:19.066Z,6.50
2024-02-21T17:28:46.135Z,6.00
2024-02-21T17:31:12.593Z,5.60
2024-02-21T17:33:39.132Z,8.00
2024-02-21T17:36:05.949Z,20.00
2024-02-21T17:38:32.427Z,12.50
2024-02-21T17:40:58.923Z,9.00
2024-02-21T17:43:25.475Z,9.40
2024-02-21T17:45:51.960Z,10.00
2024-02-21T17:48:18.493Z,6.40
2024-02-21T17:50:45.052Z,7.40
2024-02-21T17:53:12.961Z,8.25
2024-02-21T17:55:39.469Z,8.00
2024-02-21T17:58:07.800Z,8.25
2024-02-21T18:00:34.257Z,13.00
2024-02-21T18:03:01.736Z,9.80
2024-02-21T18:05:28.385Z,10.40
2024-02-21T18:07:54.950Z,10.40
2024-02-21T18:10:23.071Z,8.80
2024-02-21T18:12:49.666Z,8.00
2024-02-21T18:15:16.085Z,9.00
2024-02-21T18:17:42.653Z,11.00
2024-02-21T18:20:10.358Z,7.60
2024-02-21T18:22:36.991Z,7.00
2024-02-21T18:25:03.930Z,9.25
2024-02-21T18:27:31.104Z,9.00
2024-02-21T18:29:57.524Z,10.00
2024-02-21T18:32:25.365Z,12.50
2024-02-21T18:34:52.086Z,12.00
2024-02-21T18:37:18.746Z,11.80
2024-02-21T18:39:45.206Z,12.00
2024-02-21T18:42:11.603Z,10.00
2024-02-21T18:44:38.059Z,15.40
2024-02-21T18:47:04.923Z,10.75
2024-02-21T18:49:31.613Z,17.40
2024-02-21T18:51:58.145Z,53.20
2024-02-21T18:54:24.585Z,51.00
2024-02-21T18:56:51.012Z,113.20
2024-02-21T18:59:17.541Z,133.20
2024-02-21T19:01:44.023Z,66.00
2024-02-21T19:04:10.506Z,94.50
2024-02-21T19:06:37.274Z,78.00
2024-02-21T19:09:04.328Z,84.00
2024-02-21T19:11:30.947Z,75.50
2024-02-21T19:13:57.525Z,75.25
2024-02-21T19:16:24.050Z,38.25
2024-02-21T19:18:50.534Z,77.80
2024-02-21T19:21:17.898Z,56.40
2024-02-21T19:23:44.862Z,45.50
2024-02-21T19:26:11.348Z,111.20
2024-02-21T19:28:38.042Z,71.20
2024-02-21T19:31:04.597Z,45.40
2024-02-21T19:33:31.385Z,42.80
2024-02-21T19:35:57.857Z,45.00
2024-02-21T19:38:26.543Z,75.75
2024-02-21T19:40:53.187Z,38.25
2024-02-21T19:43:19.666Z,32.00
2024-02-21T19:45:49.130Z,19.00
2024-02-21T19:48:17.034Z,31.00
2024-02-21T19:50:43.576Z,15.20
2024-02-21T19:53:10.162Z,23.25
2024-02-21T19:55:36.734Z,19.00
2024-02-21T19:58:04.218Z,18.00
2024-02-21T20:00:30.664Z,16.60
2024-02-21T20:02:57.129Z,11.00
2024-02-21T20:05:24.408Z,15.60
2024-02-21T20:07:50.993Z,17.20
2024-02-21T20:10:20.599Z,20.00
2024-02-21T20:12:48.647Z,23.80
2024-02-21T20:15:15.404Z,42.25
2024-02-21T20:17:45.215Z,29.00
2024-02-21T20:20:12.478Z,19.25
2024-02-21T20:22:38.965Z,17.00
2024-02-21T20:25:05.747Z,15.80
2024-02-21T20:27:32.193Z,23.00
2024-02-21T20:29:58.680Z,27.50
2024-02-21T20:32:25.118Z,69.75
2024-02-21T20:34:51.649Z,33.40
2024-02-21T20:37:18.232Z,29.00
2024-02-21T20:39:44.625Z,27.00
2024-02-21T20:42:11.023Z,42.80
2024-02-21T20:44:37.449Z,28.33
2024-02-21T20:47:04.272Z,45.00
2024-02-21T20:49:31.782Z,14.60
2024-02-21T20:51:58.343Z,14.00
2024-02-21T20:54:24.746Z,10.60
2024-02-21T20:56:51.174Z,12.00
2024-02-21T20:59:19.473Z,30.75
2024-02-21T21:01:54.002Z,17.75
2024-02-21T21:04:25.183Z,44.60
2024-02-21T21:06:51.705Z,15.00
2024-02-21T21:09:20.074Z,13.00
2024-02-21T21:11:47.273Z,10.75
2024-02-21T21:14:14.084Z,17.00
2024-02-21T21:16:40.655Z,18.00
2024-02-21T21:19:07.248Z,7.60
2024-02-21T21:21:33.707Z,13.00
2024-02-21T21:24:00.137Z,10.00
2024-02-21T21:26:26.602Z,11.60
2024-02-21T21:28:57.687Z,10.60
2024-02-21T21:31:27.283Z,23.50
2024-02-21T21:33:54.145Z,29.75
2024-02-21T21:36:21.545Z,21.60
2024-02-21T21:38:49.586Z,12.80
2024-02-21T21:41:16.717Z,20.40
2024-02-21T21:43:43.424Z,10.67
2024-02-21T21:46:16.227Z,13.60
2024-02-21T21:48:45.900Z,12.00
2024-02-21T21:51:12.730Z,9.20
2024-02-21T21:53:40.942Z,20.60
2024-02-21T21:56:08.017Z,14.00
2024-02-21T21:58:35.184Z,16.60
2024-02-21T22:01:01.730Z,19.40
2024-02-21T22:03:29.432Z,18.80
2024-02-21T22:05:56.099Z,12.60
2024-02-21T22:08:22.629Z,14.00
2024-02-21T22:10:50.863Z,14.25
2024-02-21T22:13:17.632Z,14.60
2024-02-21T22:15:44.329Z,9.00
2024-02-21T22:18:10.917Z,11.00
2024-02-21T22:20:38.029Z,8.40
2024-02-21T22:23:05.007Z,8.50
2024-02-21T22:25:31.516Z,6.60
2024-02-21T22:27:57.955Z,10.50
2024-02-21T22:30:25.077Z,12.00
2024-02-21T22:32:52.663Z,12.00
2024-02-21T22:35:19.217Z,10.00
2024-02-21T22:37:45.735Z,11.25
2024-02-21T22:40:12.363Z,8.40
2024-02-21T22:42:38.797Z,8.20
2024-02-21T22:45:05.501Z,9.40
2024-02-21T22:47:31.919Z,12.00
2024-02-21T22:49:58.394Z,7.50
2024-02-21T22:52:26.398Z,9.00
2024-02-21T22:54:53.068Z,11.00
2024-02-21T22:57:19.522Z,8.00
2024-02-21T22:59:47.761Z,8.00
2024-02-21T23:02:14.304Z,7.75
2024-02-21T23:04:40.846Z,11.50
2024-02-21T23:07:07.315Z,6.75
2024-02-21T23:09:33.800Z,9.40
2024-02-21T23:12:00.383Z,7.60
2024-02-21T23:14:27.138Z,14.40
2024-02-21T23:16:53.608Z,10.00
2024-02-21T23:19:20.288Z,13.00
2024-02-21T23:21:46.959Z,7.00
2024-02-21T23:24:13.431Z,11.00
2024-02-21T23:26:39.952Z,7.50
2024-02-21T23:29:06.574Z,7.00
2024-02-21T23:31:33.224Z,7.00
2024-02-21T23:33:59.857Z,8.80
2024-02-21T23:36:26.389Z,8.50
2024-02-21T23:38:52.842Z,7.20
2024-02-21T23:41:19.446Z,11.33
2024-02-21T23:43:46.080Z,12.00
2024-02-21T23:46:12.652Z,10.25
2024-02-21T23:48:39.650Z,12.00
2024-02-21T23:51:06.451Z,10.00
2024-02-21T23:53:33.158Z,14.75
2024-02-21T23:56:00.688Z,11.00
2024-02-21T23:58:28.011Z,11.50
